Time;durP1;ratioP1;P1;durP2;ratioP2;P2;SDS_P1;SDS_P2;PMS_P1;PMS_P2;Temp;Humidity;BMP_temperature;BMP_pressure;BME280_temperature;BME280_humidity;BME280_pressure;Samples;Min_cycle;Max_cycle;Signal;HPM_P1;HPM_P2
2023/01/07 00:00:51;;;;;;;1.10;0.95;;;;;;;;;;4947620;28;20045;-77
2023/01/07 00:03:18;;;;;;;1.45;1.20;;;;;;;;;;4948267;28;20499;-78
2023/01/07 00:05:45;;;;;;;1.40;1.30;;;;;;;;;;4952501;28;20054;-79
2023/01/07 00:08:11;;;;;;;3.05;2.35;;;;;;;;;;4947881;28;20063;-79
2023/01/07 00:10:38;;;;;;;2.00;1.80;;;;;;;;;;4966398;28;20039;-78
2023/01/07 00:13:05;;;;;;;1.73;1.45;;;;;;;;;;4952701;28;20469;-78
2023/01/07 00:15:32;;;;;;;1.40;1.30;;;;;;;;;;4964333;28;20054;-78
2023/01/07 00:17:58;;;;;;;1.90;1.52;;;;;;;;;;4961108;28;20058;-77
2023/01/07 00:20:25;;;;;;;1.88;1.30;;;;;;;;;;4948173;28;20051;-77
2023/01/07 00:22:52;;;;;;;2.67;1.50;;;;;;;;;;4956589;28;20527;-76
2023/01/07 00:25:18;;;;;;;1.50;1.38;;;;;;;;;;4930715;28;20051;-76
2023/01/07 00:27:45;;;;;;;2.90;1.65;;;;;;;;;;4961467;28;20407;-76
2023/01/07 00:30:12;;;;;;;2.30;1.75;;;;;;;;;;4949051;28;20054;-77
2023/01/07 00:35:23;;;;;;;2.05;1.58;;;;;;;;;;4976296;28;20050;-77
2023/01/07 00:37:53;;;;;;;2.42;1.60;;;;;;;;;;4945643;28;20407;-77
2023/01/07 00:40:20;;;;;;;2.25;1.60;;;;;;;;;;4932683;28;20062;-77
2023/01/07 00:42:53;;;;;;;2.67;1.98;;;;;;;;;;4942413;28;20050;-78
2023/01/07 00:45:21;;;;;;;3.42;1.98;;;;;;;;;;4959541;28;20046;-78
2023/01/07 00:47:48;;;;;;;4.72;2.35;;;;;;;;;;4920554;28;20059;-77
2023/01/07 00:50:15;;;;;;;2.17;1.70;;;;;;;;;;4948535;28;20057;-78
2023/01/07 00:52:41;;;;;;;1.90;1.42;;;;;;;;;;4939708;28;20121;-77
2023/01/07 00:55:09;;;;;;;1.35;1.10;;;;;;;;;;4940841;28;20065;-77
2023/01/07 00:57:36;;;;;;;2.65;1.60;;;;;;;;;;4953927;28;20063;-79
2023/01/07 01:00:03;;;;;;;4.65;1.60;;;;;;;;;;4951711;28;20076;-78
2023/01/07 01:02:30;;;;;;;2.33;1.40;;;;;;;;;;4976622;28;20042;-78
2023/01/07 01:04:56;;;;;;;1.95;1.42;;;;;;;;;;4965246;28;20161;-78
2023/01/07 01:07:23;;;;;;;1.75;1.30;;;;;;;;;;4965329;28;20110;-78
2023/01/07 01:09:50;;;;;;;1.98;1.40;;;;;;;;;;4963177;28;20047;-78
2023/01/07 01:12:17;;;;;;;1.80;1.30;;;;;;;;;;4957281;28;20059;-77
2023/01/07 01:14:43;;;;;;;2.00;1.27;;;;;;;;;;4963929;28;20062;-76
2023/01/07 01:17:10;;;;;;;2.20;1.20;;;;;;;;;;4993537;28;20588;-77
2023/01/07 01:19:37;;;;;;;1.85;1.50;;;;;;;;;;4942579;28;20058;-77
2023/01/07 01:22:03;;;;;;;1.52;1.42;;;;;;;;;;4962869;28;20113;-77
2023/01/07 01:24:30;;;;;;;1.60;1.50;;;;;;;;;;4942055;29;20520;-78
2023/01/07 01:26:57;;;;;;;1.90;1.50;;;;;;;;;;4962898;28;20065;-78
2023/01/07 01:29:23;;;;;;;1.90;1.40;;;;;;;;;;4942313;28;20518;-77
2023/01/07 01:31:50;;;;;;;1.67;1.40;;;;;;;;;;4930051;28;20051;-78
2023/01/07 01:34:17;;;;;;;2.38;1.30;;;;;;;;;;4940015;28;20066;-78
2023/01/07 01:36:44;;;;;;;2.60;1.45;;;;;;;;;;4961237;28;20530;-78
2023/01/07 01:39:10;;;;;;;1.60;1.45;;;;;;;;;;4946105;28;20058;-77
2023/01/07 01:41:37;;;;;;;2.60;1.33;;;;;;;;;;4961599;28;20062;-77
2023/01/07 01:44:46;;;;;;;1.30;1.20;;;;;;;;;;4952727;28;20058;-78
2023/01/07 01:47:30;;;;;;;2.15;1.50;;;;;;;;;;4958509;28;20407;-78
2023/01/07 01:50:18;;;;;;;1.45;1.20;;;;;;;;;;4957197;28;20141;-77
2023/01/07 01:52:46;;;;;;;1.90;1.50;;;;;;;;;;4952485;28;20105;-77
2023/01/07 01:55:16;;;;;;;2.10;1.33;;;;;;;;;;4979147;28;20062;-77
2023/01/07 01:57:42;;;;;;;2.53;1.60;;;;;;;;;;4932529;28;20062;-78
2023/01/07 02:00:10;;;;;;;2.80;1.55;;;;;;;;;;4968101;28;20062;-78
2023/01/07 02:02:43;;;;;;;2.80;1.52;;;;;;;;;;4930369;28;20530;-76
2023/01/07 02:05:09;;;;;;;1.45;1.35;;;;;;;;;;4932532;28;20484;-76
2023/01/07 02:07:36;;;;;;;1.63;1.42;;;;;;;;;;4948455;28;20050;-76
2023/01/07 02:10:15;;;;;;;1.45;1.30;;;;;;;;;;4970387;28;20053;-76
2023/01/07 02:13:09;;;;;;;2.03;1.70;;;;;;;;;;4966508;28;20054;-76
2023/01/07 02:15:48;;;;;;;2.75;2.17;;;;;;;;;;4957508;28;20051;-77
2023/01/07 02:18:42;;;;;;;2.78;2.10;;;;;;;;;;4965287;28;20507;-77
2023/01/07 02:21:38;;;;;;;2.22;1.80;;;;;;;;;;4954796;28;20046;-76
2023/01/07 02:24:16;;;;;;;2.78;2.40;;;;;;;;;;4964080;28;20055;-77
2023/01/07 02:26:59;;;;;;;3.63;2.10;;;;;;;;;;4954627;28;20054;-76
2023/01/07 02:29:28;;;;;;;2.90;1.77;;;;;;;;;;4943639;28;20411;-77
2023/01/07 02:32:23;;;;;;;1.48;1.38;;;;;;;;;;4954123;28;20042;-76
2023/01/07 02:34:57;;;;;;;4.50;1.58;;;;;;;;;;4978214;28;20414;-77
2023/01/07 02:37:30;;;;;;;2.78;1.70;;;;;;;;;;4979948;28;20086;-76
2023/01/07 02:40:15;;;;;;;2.22;1.48;;;;;;;;;;4946898;28;20593;-76
2023/01/07 02:43:04;;;;;;;1.98;1.40;;;;;;;;;;4939418;28;20101;-77
2023/01/07 02:45:38;;;;;;;4.85;1.35;;;;;;;;;;4964616;28;20104;-76
2023/01/07 02:48:07;;;;;;;1.67;1.50;;;;;;;;;;4945508;28;20637;-76
2023/01/07 02:50:37;;;;;;;1.30;1.20;;;;;;;;;;4949344;28;20109;-76
2023/01/07 02:53:05;;;;;;;1.98;1.42;;;;;;;;;;4963124;28;20051;-76
2023/01/07 02:56:06;;;;;;;4.03;2.28;;;;;;;;;;4922131;28;20069;-78
2023/01/07 02:59:10;;;;;;;2.40;2.10;;;;;;;;;;4936079;28;20410;-77
2023/01/07 03:02:00;;;;;;;3.15;2.17;;;;;;;;;;4963529;28;20043;-76
2023/01/07 03:04:51;;;;;;;3.42;2.00;;;;;;;;;;4929125;28;20059;-77
2023/01/07 03:07:40;;;;;;;3.25;2.10;;;;;;;;;;4953591;28;20142;-79
2023/01/07 03:10:31;;;;;;;2.45;2.17;;;;;;;;;;4927501;28;20062;-76
2023/01/07 03:13:04;;;;;;;2.08;1.88;;;;;;;;;;4943915;28;20051;-77
2023/01/07 03:15:44;;;;;;;3.58;2.03;;;;;;;;;;4920789;28;20055;-76
2023/01/07 03:18:29;;;;;;;2.80;2.30;;;;;;;;;;4940220;28;20467;-76
2023/01/07 03:21:04;;;;;;;4.30;2.08;;;;;;;;;;4930448;28;20054;-77
2023/01/07 03:23:32;;;;;;;3.28;2.35;;;;;;;;;;4934305;28;20736;-76
2023/01/07 03:26:01;;;;;;;2.95;2.47;;;;;;;;;;4931322;28;20050;-76
2023/01/07 03:28:31;;;;;;;3.22;2.30;;;;;;;;;;4961766;28;20182;-77
2023/01/07 03:31:01;;;;;;;2.90;2.50;;;;;;;;;;4932520;28;20055;-76
2023/01/07 03:34:01;;;;;;;2.47;1.98;;;;;;;;;;4949269;28;20062;-77
2023/01/07 03:36:32;;;;;;;2.30;1.92;;;;;;;;;;4974843;28;20038;-77
2023/01/07 03:38:59;;;;;;;3.88;2.30;;;;;;;;;;4945760;28;20042;-77
2023/01/07 03:44:20;;;;;;;2.83;2.10;;;;;;;;;;4967923;28;20400;-78
2023/01/07 03:46:51;;;;;;;3.20;1.80;;;;;;;;;;4969473;28;20055;-77
2023/01/07 03:49:21;;;;;;;3.05;2.15;;;;;;;;;;4964802;28;20065;-76
2023/01/07 03:51:53;;;;;;;2.33;2.13;;;;;;;;;;4954247;28;20055;-76
2023/01/07 03:54:23;;;;;;;3.33;2.30;;;;;;;;;;4987040;28;20038;-76
2023/01/07 03:56:50;;;;;;;2.67;1.80;;;;;;;;;;4970934;28;20094;-76
2023/01/07 03:59:18;;;;;;;3.75;2.10;;;;;;;;;;4982688;28;20055;-76
2023/01/07 04:01:48;;;;;;;2.80;2.05;;;;;;;;;;4987374;28;20062;-76
2023/01/07 04:04:15;;;;;;;1.90;1.60;;;;;;;;;;4960749;28;20165;-76
2023/01/07 04:06:43;;;;;;;2.70;1.85;;;;;;;;;;4984670;28;20054;-76
2023/01/07 04:09:11;;;;;;;3.28;1.60;;;;;;;;;;4961664;28;20043;-76
2023/01/07 04:11:38;;;;;;;2.33;1.88;;;;;;;;;;4971485;28;20040;-76
2023/01/07 04:14:09;;;;;;;1.88;1.60;;;;;;;;;;4971889;28;20051;-76
2023/01/07 04:16:36;;;;;;;1.70;1.50;;;;;;;;;;4977452;28;20054;-77
2023/01/07 04:19:07;;;;;;;2.13;1.73;;;;;;;;;;4992402;28;20478;-77
2023/01/07 04:21:34;;;;;;;1.98;1.77;;;;;;;;;;4971660;28;20046;-76
2023/01/07 04:24:01;;;;;;;5.07;2.83;;;;;;;;;;4960472;28;20061;-76
2023/01/07 04:26:28;;;;;;;2.85;2.40;;;;;;;;;;4965969;28;20061;-76
2023/01/07 04:28:56;;;;;;;3.60;2.50;;;;;;;;;;4958200;28;20121;-76
2023/01/07 04:31:26;;;;;;;3.80;3.22;;;;;;;;;;4952352;28;20060;-77
2023/01/07 04:33:55;;;;;;;3.72;2.92;;;;;;;;;;4980039;28;20442;-75
2023/01/07 04:36:29;;;;;;;5.85;3.25;;;;;;;;;;4978946;28;20050;-76
2023/01/07 04:39:08;;;;;;;3.20;2.83;;;;;;;;;;4949397;28;20057;-76
2023/01/07 04:41:46;;;;;;;4.68;3.22;;;;;;;;;;4970154;28;20075;-77
2023/01/07 04:44:17;;;;;;;3.55;2.95;;;;;;;;;;4989551;28;20050;-76
2023/01/07 04:46:45;;;;;;;5.75;2.97;;;;;;;;;;4959421;28;20065;-76
2023/01/07 04:49:15;;;;;;;3.40;3.00;;;;;;;;;;4926121;28;20061;-76
2023/01/07 04:51:45;;;;;;;4.38;2.42;;;;;;;;;;4926377;28;20050;-76
2023/01/07 04:54:13;;;;;;;3.72;2.75;;;;;;;;;;4951052;28;20062;-75
2023/01/07 04:56:44;;;;;;;3.30;2.90;;;;;;;;;;4982192;28;20066;-76
2023/01/07 04:59:12;;;;;;;3.97;2.63;;;;;;;;;;4927578;28;20065;-76
2023/01/07 05:01:43;;;;;;;4.03;3.05;;;;;;;;;;4937353;28;20059;-76
2023/01/07 05:04:11;;;;;;;4.45;2.88;;;;;;;;;;4939477;28;20097;-76
2023/01/07 05:06:41;;;;;;;3.28;2.97;;;;;;;;;;4961621;28;20043;-77
2023/01/07 05:09:11;;;;;;;4.38;3.38;;;;;;;;;;4948565;28;20051;-76
2023/01/07 05:11:40;;;;;;;4.22;3.08;;;;;;;;;;4926952;28;20087;-76
2023/01/07 05:14:10;;;;;;;4.15;3.03;;;;;;;;;;4930832;28;20564;-76
2023/01/07 05:16:42;;;;;;;4.18;3.08;;;;;;;;;;4928314;28;20133;-76
2023/01/07 05:19:10;;;;;;;4.20;3.08;;;;;;;;;;4951633;28;20061;-76
2023/01/07 05:21:41;;;;;;;4.50;3.00;;;;;;;;;;4967492;28;20490;-76
2023/01/07 05:24:11;;;;;;;4.45;2.80;;;;;;;;;;4964804;28;20506;-77
2023/01/07 05:26:43;;;;;;;4.07;3.40;;;;;;;;;;4980748;28;20069;-76
2023/01/07 05:29:11;;;;;;;3.35;2.70;;;;;;;;;;4943173;28;20058;-77
2023/01/07 05:31:39;;;;;;;3.17;2.80;;;;;;;;;;4948228;28;20153;-77
2023/01/07 05:34:07;;;;;;;5.00;3.30;;;;;;;;;;4936781;28;20051;-77
2023/01/07 05:36:35;;;;;;;4.00;2.67;;;;;;;;;;4976529;28;20109;-77
2023/01/07 05:39:05;;;;;;;3.72;2.97;;;;;;;;;;4958280;28;20066;-78
2023/01/07 05:41:36;;;;;;;4.70;2.97;;;;;;;;;;4965402;28;20134;-77
2023/01/07 05:44:04;;;;;;;3.72;2.67;;;;;;;;;;4935949;28;20134;-77
2023/01/07 05:46:32;;;;;;;4.18;2.65;;;;;;;;;;4928799;28;20506;-77
2023/01/07 05:49:02;;;;;;;3.60;2.70;;;;;;;;;;4956408;28;20115;-77
2023/01/07 05:51:30;;;;;;;3.50;2.88;;;;;;;;;;4939670;28;20058;-77
2023/01/07 05:53:58;;;;;;;4.20;3.10;;;;;;;;;;4948837;28;20089;-77
2023/01/07 05:56:25;;;;;;;4.13;3.05;;;;;;;;;;4939054;28;20054;-77
2023/01/07 05:58:54;;;;;;;3.22;2.88;;;;;;;;;;4949132;28;20074;-78
2023/01/07 06:01:25;;;;;;;3.58;2.90;;;;;;;;;;4932907;28;20184;-78
2023/01/07 06:03:54;;;;;;;3.47;2.92;;;;;;;;;;4943046;28;20043;-77
2023/01/07 06:06:21;;;;;;;4.55;3.05;;;;;;;;;;4968415;28;20408;-78
2023/01/07 06:08:58;;;;;;;3.60;3.25;;;;;;;;;;4958035;28;20054;-78
2023/01/07 06:11:29;;;;;;;4.00;3.20;;;;;;;;;;4957067;28;20050;-78
2023/01/07 06:13:56;;;;;;;4.38;2.95;;;;;;;;;;4924513;28;20061;-77
2023/01/07 06:16:26;;;;;;;5.32;3.25;;;;;;;;;;4943117;28;20058;-77
2023/01/07 06:18:53;;;;;;;3.53;2.88;;;;;;;;;;4948718;28;20109;-77
2023/01/07 06:21:23;;;;;;;3.22;2.88;;;;;;;;;;4926305;28;20058;-79
2023/01/07 06:23:52;;;;;;;3.20;2.47;;;;;;;;;;4933300;28;20051;-78
2023/01/07 06:26:21;;;;;;;3.40;2.85;;;;;;;;;;4940747;28;20077;-78
2023/01/07 06:28:50;;;;;;;3.70;2.70;;;;;;;;;;4945773;28;20125;-78
2023/01/07 06:31:18;;;;;;;3.00;2.70;;;;;;;;;;4923261;28;20410;-78
2023/01/07 06:33:45;;;;;;;5.65;2.50;;;;;;;;;;4947381;28;20054;-78
2023/01/07 06:36:13;;;;;;;2.53;2.33;;;;;;;;;;4983290;28;20069;-78
2023/01/07 06:38:40;;;;;;;4.55;2.55;;;;;;;;;;4969556;28;20400;-78
2023/01/07 06:41:08;;;;;;;3.53;2.67;;;;;;;;;;4964063;28;20062;-79
2023/01/07 06:43:35;;;;;;;2.70;2.10;;;;;;;;;;4943312;28;20130;-79
2023/01/07 06:46:07;;;;;;;3.60;2.05;;;;;;;;;;4932930;28;20057;-78
2023/01/07 06:48:35;;;;;;;2.58;1.85;;;;;;;;;;4920039;28;20055;-78
2023/01/07 06:51:03;;;;;;;2.13;1.73;;;;;;;;;;4968215;28;20050;-78
2023/01/07 06:53:34;;;;;;;1.92;1.50;;;;;;;;;;4973220;28;20101;-79
2023/01/07 06:56:02;;;;;;;3.22;2.00;;;;;;;;;;4966430;28;20053;-78
2023/01/07 06:58:32;;;;;;;2.00;1.88;;;;;;;;;;4928286;28;20055;-78
2023/01/07 07:01:08;;;;;;;2.67;1.52;;;;;;;;;;4961319;28;20135;-74
2023/01/07 07:03:36;;;;;;;1.70;1.60;;;;;;;;;;4944687;28;20042;-75
2023/01/07 07:06:04;;;;;;;2.70;1.75;;;;;;;;;;4945096;28;20050;-77
2023/01/07 07:08:31;;;;;;;1.88;1.60;;;;;;;;;;4947455;28;20495;-79
2023/01/07 07:11:16;;;;;;;1.48;1.38;;;;;;;;;;4932417;28;20055;-78
2023/01/07 07:13:46;;;;;;;1.70;1.60;;;;;;;;;;4976286;28;20047;-80
2023/01/07 07:16:17;;;;;;;3.47;1.70;;;;;;;;;;4958018;28;20054;-79
2023/01/07 07:18:45;;;;;;;2.83;1.85;;;;;;;;;;4957707;28;20531;-80
2023/01/07 07:21:14;;;;;;;2.00;1.65;;;;;;;;;;4962416;28;20062;-80
2023/01/07 07:23:41;;;;;;;1.85;1.50;;;;;;;;;;4977020;28;20607;-77
2023/01/07 07:26:11;;;;;;;1.65;1.55;;;;;;;;;;4963012;28;20082;-80
2023/01/07 07:28:46;;;;;;;2.00;1.48;;;;;;;;;;4940813;28;20055;-78
2023/01/07 07:31:18;;;;;;;1.90;1.52;;;;;;;;;;4931328;28;20160;-78
2023/01/07 07:33:46;;;;;;;1.65;1.55;;;;;;;;;;4939695;28;20135;-77
2023/01/07 07:36:13;;;;;;;4.13;2.05;;;;;;;;;;4951548;28;20054;-77
2023/01/07 07:38:44;;;;;;;1.90;1.65;;;;;;;;;;4974499;28;20042;-77
2023/01/07 07:41:16;;;;;;;1.70;1.60;;;;;;;;;;4982854;28;20047;-78
2023/01/07 07:43:43;;;;;;;1.80;1.60;;;;;;;;;;4920495;28;20051;-78
2023/01/07 07:46:14;;;;;;;4.32;2.15;;;;;;;;;;4957443;28;20054;-77
2023/01/07 07:48:46;;;;;;;2.05;1.85;;;;;;;;;;4951523;28;20485;-78
2023/01/07 07:51:13;;;;;;;2.63;1.10;;;;;;;;;;4953087;28;20164;-78
2023/01/07 07:53:41;;;;;;;1.30;1.20;;;;;;;;;;4960370;28;20042;-78
2023/01/07 07:56:09;;;;;;;1.13;0.90;;;;;;;;;;4971378;28;20495;-78
2023/01/07 07:58:36;;;;;;;1.38;0.82;;;;;;;;;;4951566;28;20050;-78
2023/01/07 08:01:04;;;;;;;1.00;0.90;;;;;;;;;;4927344;28;20089;-78
2023/01/07 08:03:32;;;;;;;1.00;0.80;;;;;;;;;;4953349;28;20039;-80
2023/01/07 08:06:04;;;;;;;1.02;0.80;;;;;;;;;;4928520;28;20047;-78
2023/01/07 08:08:39;;;;;;;0.70;0.70;;;;;;;;;;4944406;28;20062;-79
2023/01/07 08:11:07;;;;;;;0.70;0.70;;;;;;;;;;4957132;28;20054;-80
2023/01/07 08:13:37;;;;;;;0.80;0.80;;;;;;;;;;4968096;28;20072;-81
2023/01/07 08:16:04;;;;;;;1.00;0.70;;;;;;;;;;4974537;28;20046;-80
2023/01/07 08:18:34;;;;;;;0.85;0.80;;;;;;;;;;4929654;28;20078;-82
2023/01/07 08:21:04;;;;;;;0.90;0.70;;;;;;;;;;4932563;28;20050;-82
2023/01/07 08:23:35;;;;;;;1.17;1.08;;;;;;;;;;4936973;28;20228;-82
2023/01/07 08:26:07;;;;;;;1.63;1.52;;;;;;;;;;4939694;28;20061;-82
2023/01/07 08:28:38;;;;;;;1.38;0.95;;;;;;;;;;4983335;28;20043;-83
2023/01/07 08:31:06;;;;;;;1.08;0.95;;;;;;;;;;4946249;28;20135;-83
2023/01/07 08:33:36;;;;;;;1.90;1.40;;;;;;;;;;4935585;28;20083;-83
2023/01/07 08:36:04;;;;;;;1.70;1.27;;;;;;;;;;4939817;28;20058;-81
2023/01/07 08:38:37;;;;;;;2.22;1.63;;;;;;;;;;4969658;28;20085;-81
2023/01/07 08:41:05;;;;;;;2.67;1.67;;;;;;;;;;4964524;28;20434;-79
2023/01/07 08:43:33;;;;;;;3.47;2.13;;;;;;;;;;4927301;28;20093;-80
2023/01/07 08:46:05;;;;;;;2.58;2.35;;;;;;;;;;4964085;28;20468;-82
2023/01/07 08:48:40;;;;;;;5.97;5.25;;;;;;;;;;4976460;28;20058;-81
2023/01/07 08:51:10;;;;;;;3.53;2.72;;;;;;;;;;4981232;28;20069;-81
2023/01/07 08:53:47;;;;;;;1.65;1.55;;;;;;;;;;4926618;28;20062;-82
2023/01/07 08:56:19;;;;;;;1.20;0.95;;;;;;;;;;4939950;28;20042;-80
2023/01/07 08:58:52;;;;;;;2.22;1.02;;;;;;;;;;4978389;28;20050;-79
2023/01/07 09:01:23;;;;;;;3.20;1.95;;;;;;;;;;4930173;28;20065;-81
2023/01/07 09:03:50;;;;;;;1.20;1.10;;;;;;;;;;4929627;28;20258;-83
2023/01/07 09:06:17;;;;;;;1.42;1.30;;;;;;;;;;4945724;28;20135;-83
2023/01/07 09:08:44;;;;;;;1.75;1.30;;;;;;;;;;4946636;28;20138;-83
2023/01/07 09:11:13;;;;;;;1.67;0.85;;;;;;;;;;4931564;28;20054;-83
2023/01/07 09:13:42;;;;;;;0.88;0.88;;;;;;;;;;4933203;28;20151;-83
2023/01/07 09:16:09;;;;;;;0.90;0.77;;;;;;;;;;4963083;28;20054;-83
2023/01/07 09:18:37;;;;;;;2.40;0.80;;;;;;;;;;4948363;28;20091;-83
2023/01/07 09:21:06;;;;;;;1.75;1.30;;;;;;;;;;4948442;28;20058;-83
2023/01/07 09:23:33;;;;;;;1.83;1.10;;;;;;;;;;4947403;28;20086;-83
2023/01/07 09:26:00;;;;;;;1.27;1.13;;;;;;;;;;4932562;28;20537;-83
2023/01/07 09:28:28;;;;;;;1.45;1.10;;;;;;;;;;4937702;29;20065;-83
2023/01/07 09:30:55;;;;;;;1.48;1.23;;;;;;;;;;4938594;29;20047;-83
2023/01/07 09:33:25;;;;;;;1.10;1.00;;;;;;;;;;4974153;28;20115;-83
2023/01/07 09:35:52;;;;;;;1.50;1.13;;;;;;;;;;4948005;28;20046;-83
2023/01/07 09:38:21;;;;;;;1.02;0.93;;;;;;;;;;4972628;28;20051;-83
2023/01/07 09:40:48;;;;;;;1.63;1.50;;;;;;;;;;4964684;28;20110;-83
2023/01/07 09:43:19;;;;;;;3.92;1.30;;;;;;;;;;4946470;28;20051;-83
2023/01/07 09:45:54;;;;;;;1.33;1.20;;;;;;;;;;4962972;28;20076;-84
2023/01/07 09:48:29;;;;;;;1.50;1.38;;;;;;;;;;4931740;28;20050;-83
2023/01/07 09:51:00;;;;;;;1.60;1.33;;;;;;;;;;4962971;28;20051;-82
2023/01/07 09:53:37;;;;;;;1.83;1.45;;;;;;;;;;4961714;28;20416;-83
2023/01/07 09:56:09;;;;;;;2.05;1.50;;;;;;;;;;4961500;28;20062;-82
2023/01/07 09:58:40;;;;;;;2.25;1.67;;;;;;;;;;4927574;28;20093;-83
2023/01/07 10:01:27;;;;;;;1.70;1.60;;;;;;;;;;4941574;28;20058;-81
2023/01/07 10:04:19;;;;;;;1.80;1.50;;;;;;;;;;4960538;28;20129;-81
2023/01/07 10:07:11;;;;;;;1.95;1.70;;;;;;;;;;4960092;28;20058;-81
2023/01/07 10:09:56;;;;;;;2.17;1.40;;;;;;;;;;4977340;28;20047;-81
2023/01/07 10:12:31;;;;;;;1.77;1.63;;;;;;;;;;4960323;28;20054;-81
2023/01/07 10:15:08;;;;;;;2.10;1.70;;;;;;;;;;4963014;28;20051;-80
2023/01/07 10:17:57;;;;;;;3.13;2.00;;;;;;;;;;4961026;28;20082;-78
2023/01/07 10:21:05;;;;;;;3.05;1.55;;;;;;;;;;4950309;28;20054;-77
2023/01/07 10:23:49;;;;;;;4.13;2.53;;;;;;;;;;4979460;28;20058;-78
2023/01/07 10:26:48;;;;;;;3.55;2.20;;;;;;;;;;4936249;28;20059;-80
2023/01/07 10:29:45;;;;;;;2.83;2.00;;;;;;;;;;4982245;28;20055;-79
2023/01/07 10:32:15;;;;;;;2.75;1.92;;;;;;;;;;4996717;28;20112;-79
2023/01/07 10:34:47;;;;;;;2.78;2.40;;;;;;;;;;4946744;28;20047;-79
2023/01/07 10:37:30;;;;;;;3.47;2.33;;;;;;;;;;4956101;28;20550;-80
2023/01/07 10:40:42;;;;;;;3.53;2.50;;;;;;;;;;4938637;28;20073;-79
2023/01/07 10:43:43;;;;;;;2.38;2.17;;;;;;;;;;4974547;28;20050;-82
2023/01/07 10:46:20;;;;;;;3.78;2.72;;;;;;;;;;4990516;28;20062;-79
2023/01/07 10:48:51;;;;;;;3.13;2.30;;;;;;;;;;4977473;28;20051;-82
2023/01/07 10:51:22;;;;;;;3.08;2.63;;;;;;;;;;4944020;28;20061;-82
2023/01/07 10:54:26;;;;;;;3.17;2.80;;;;;;;;;;4956036;28;20060;-82
2023/01/07 10:56:56;;;;;;;3.42;2.95;;;;;;;;;;4946939;28;20050;-82
2023/01/07 10:59:24;;;;;;;4.25;2.95;;;;;;;;;;4954410;28;20057;-81
2023/01/07 11:01:55;;;;;;;4.60;3.08;;;;;;;;;;4943920;28;20058;-82
2023/01/07 11:04:23;;;;;;;3.85;2.70;;;;;;;;;;4919892;28;20140;-82
2023/01/07 11:07:19;;;;;;;3.45;2.80;;;;;;;;;;4950945;28;20050;-82
2023/01/07 11:09:47;;;;;;;3.45;2.70;;;;;;;;;;4958415;28;20462;-80
2023/01/07 11:12:36;;;;;;;3.88;3.40;;;;;;;;;;4931348;28;20058;-80
2023/01/07 11:15:27;;;;;;;6.28;3.13;;;;;;;;;;4945402;28;20131;-80
2023/01/07 11:18:17;;;;;;;4.20;3.30;;;;;;;;;;4967640;28;20042;-80
2023/01/07 11:20:56;;;;;;;7.73;3.60;;;;;;;;;;4950226;28;20108;-80
2023/01/07 11:23:42;;;;;;;4.10;3.28;;;;;;;;;;4916505;28;20118;-79
2023/01/07 11:26:13;;;;;;;5.00;3.03;;;;;;;;;;4939056;28;20476;-79
2023/01/07 11:29:15;;;;;;;3.25;2.60;;;;;;;;;;4966967;28;20065;-80
2023/01/07 11:32:25;;;;;;;4.80;3.30;;;;;;;;;;4936161;28;20055;-79
2023/01/07 11:35:00;;;;;;;3.80;3.35;;;;;;;;;;4986471;28;20047;-80
2023/01/07 11:37:56;;;;;;;4.07;2.92;;;;;;;;;;4955863;28;20135;-81
2023/01/07 11:40:30;;;;;;;3.45;3.10;;;;;;;;;;4971969;28;20059;-80
2023/01/07 11:43:29;;;;;;;4.55;3.15;;;;;;;;;;4945659;28;20065;-81
2023/01/07 11:46:03;;;;;;;3.65;3.08;;;;;;;;;;4942383;28;20050;-80
2023/01/07 11:49:02;;;;;;;3.80;3.40;;;;;;;;;;4946389;28;20080;-80
2023/01/07 11:51:40;;;;;;;4.35;3.10;;;;;;;;;;4932362;28;20059;-80
2023/01/07 11:54:18;;;;;;;3.38;2.75;;;;;;;;;;4931098;28;20047;-80
2023/01/07 11:56:52;;;;;;;4.70;3.25;;;;;;;;;;4937462;28;20054;-80
2023/01/07 11:59:31;;;;;;;3.88;3.10;;;;;;;;;;4929699;28;20058;-80
2023/01/07 12:01:59;;;;;;;5.75;3.13;;;;;;;;;;4943097;28;20043;-82
2023/01/07 12:04:31;;;;;;;3.78;3.20;;;;;;;;;;4947303;28;20050;-82
2023/01/07 12:07:10;;;;;;;5.28;3.30;;;;;;;;;;4985205;28;20050;-82
2023/01/07 12:09:42;;;;;;;4.40;3.20;;;;;;;;;;4934793;28;20569;-82
2023/01/07 12:12:35;;;;;;;4.90;3.90;;;;;;;;;;4934786;28;20141;-82
2023/01/07 12:15:08;;;;;;;3.40;3.10;;;;;;;;;;4965492;28;20050;-78
2023/01/07 12:18:07;;;;;;;5.47;3.38;;;;;;;;;;4954170;28;20110;-80
2023/01/07 12:20:58;;;;;;;3.75;3.10;;;;;;;;;;4957033;28;20105;-78
2023/01/07 12:23:53;;;;;;;4.20;3.70;;;;;;;;;;4950414;28;20089;-81
2023/01/07 12:27:04;;;;;;;5.90;3.67;;;;;;;;;;4960143;28;20077;-82
2023/01/07 12:29:50;;;;;;;3.35;2.80;;;;;;;;;;4954470;28;20061;-80
2023/01/07 12:32:38;;;;;;;3.38;3.03;;;;;;;;;;4965281;28;20511;-79
2023/01/07 12:35:16;;;;;;;3.03;2.65;;;;;;;;;;4961380;28;20105;-80
2023/01/07 12:37:56;;;;;;;3.25;2.80;;;;;;;;;;4944162;28;20047;-80
2023/01/07 12:40:30;;;;;;;3.58;2.67;;;;;;;;;;4931748;28;20590;-80
2023/01/07 12:43:21;;;;;;;3.05;2.75;;;;;;;;;;4958293;28;20046;-80
2023/01/07 12:46:17;;;;;;;4.00;2.97;;;;;;;;;;4961204;28;20054;-79
2023/01/07 12:49:05;;;;;;;3.42;2.75;;;;;;;;;;4958551;28;20101;-77
2023/01/07 12:51:55;;;;;;;3.30;2.80;;;;;;;;;;4976700;28;20145;-79
2023/01/07 12:54:42;;;;;;;3.25;2.72;;;;;;;;;;4950955;28;20055;-79
2023/01/07 12:57:24;;;;;;;4.28;3.20;;;;;;;;;;4936965;28;20093;-79
2023/01/07 13:00:07;;;;;;;3.40;3.10;;;;;;;;;;4964856;28;20061;-79
2023/01/07 13:02:53;;;;;;;3.33;2.70;;;;;;;;;;4956373;28;20058;-78
2023/01/07 13:05:45;;;;;;;3.20;2.70;;;;;;;;;;4955504;28;20153;-79
2023/01/07 13:09:01;;;;;;;4.32;2.50;;;;;;;;;;4951116;28;20589;-79
2023/01/07 13:14:41;;;;;;;2.55;2.33;;;;;;;;;;4945783;28;20058;-78
2023/01/07 13:17:42;;;;;;;4.07;2.70;;;;;;;;;;4924950;28;20113;-79
2023/01/07 13:20:46;;;;;;;3.47;2.60;;;;;;;;;;4863624;29;20483;-79
2023/01/07 13:23:39;;;;;;;3.15;2.45;;;;;;;;;;4877519;28;20054;-80
2023/01/07 13:26:18;;;;;;;3.22;2.85;;;;;;;;;;4951575;28;20057;-79
2023/01/07 13:28:58;;;;;;;2.40;2.20;;;;;;;;;;4961181;28;20046;-80
2023/01/07 13:31:39;;;;;;;3.60;3.13;;;;;;;;;;4959852;28;20042;-80
2023/01/07 13:34:27;;;;;;;3.03;2.72;;;;;;;;;;4963988;28;20062;-81
2023/01/07 13:37:34;;;;;;;3.67;2.50;;;;;;;;;;4961041;28;20051;-81
2023/01/07 13:40:20;;;;;;;3.15;2.70;;;;;;;;;;4966667;28;20083;-81
2023/01/07 13:43:11;;;;;;;4.55;2.90;;;;;;;;;;4956384;28;20058;-77
2023/01/07 13:45:44;;;;;;;2.80;2.45;;;;;;;;;;4946160;28;20138;-79
2023/01/07 13:48:20;;;;;;;3.88;2.58;;;;;;;;;;4941592;28;20062;-79
2023/01/07 13:51:01;;;;;;;2.88;2.58;;;;;;;;;;4969242;28;20055;-79
2023/01/07 13:53:32;;;;;;;2.97;2.60;;;;;;;;;;4948141;28;20110;-79
2023/01/07 13:56:18;;;;;;;3.00;2.33;;;;;;;;;;4939150;28;20051;-79
2023/01/07 13:58:48;;;;;;;2.60;2.40;;;;;;;;;;4959266;28;20447;-79
2023/01/07 14:01:23;;;;;;;2.92;2.58;;;;;;;;;;4952986;28;20616;-79
2023/01/07 14:04:03;;;;;;;3.13;2.70;;;;;;;;;;4943531;28;20072;-79
2023/01/07 14:06:45;;;;;;;3.30;3.00;;;;;;;;;;4942792;28;20130;-80
2023/01/07 14:09:22;;;;;;;2.65;2.45;;;;;;;;;;4959698;28;20050;-79
2023/01/07 14:12:12;;;;;;;3.28;2.97;;;;;;;;;;4963321;28;20138;-79
2023/01/07 14:15:28;;;;;;;3.63;2.90;;;;;;;;;;4970159;28;20070;-79
2023/01/07 14:18:00;;;;;;;4.45;2.60;;;;;;;;;;4928746;28;20054;-79
2023/01/07 14:20:33;;;;;;;3.55;2.75;;;;;;;;;;4964721;28;20053;-80
2023/01/07 14:23:06;;;;;;;;;;;;;;;;;;4972297;28;20057;-79
2023/01/07 14:25:52;;;;;;;2.70;2.38;;;;;;;;;;4969842;28;19985;-84
2023/01/07 14:28:39;;;;;;;5.05;2.88;;;;;;;;;;4965670;28;20054;-79
2023/01/07 14:31:24;;;;;;;3.13;2.78;;;;;;;;;;4944316;28;20051;-78
2023/01/07 14:37:08;;;;;;;2.85;2.55;;;;;;;;;;4957899;28;20058;-77
2023/01/07 14:39:43;;;;;;;4.18;3.28;;;;;;;;;;4963833;28;20063;-77
2023/01/07 14:42:20;;;;;;;3.22;2.80;;;;;;;;;;4965141;28;20081;-75
2023/01/07 14:44:48;;;;;;;3.70;2.65;;;;;;;;;;4967412;28;20054;-76
2023/01/07 14:47:54;;;;;;;3.25;2.95;;;;;;;;;;4979037;28;20050;-76
2023/01/07 14:50:39;;;;;;;3.28;2.85;;;;;;;;;;4973706;28;20050;-76
2023/01/07 14:53:34;;;;;;;3.67;3.13;;;;;;;;;;4965236;28;20114;-76
2023/01/07 14:56:12;;;;;;;3.38;2.75;;;;;;;;;;4948639;28;20046;-76
2023/01/07 14:59:17;;;;;;;3.67;3.00;;;;;;;;;;4977930;28;20175;-76
2023/01/07 15:02:11;;;;;;;4.03;3.20;;;;;;;;;;4962548;28;20109;-75
2023/01/07 15:05:00;;;;;;;3.58;2.97;;;;;;;;;;4969831;28;20054;-77
2023/01/07 15:07:31;;;;;;;3.40;2.80;;;;;;;;;;4959843;28;20054;-76
2023/01/07 15:16:05;;;;;;;3.30;2.90;;;;;;;;;;4961321;28;20046;-77
2023/01/07 15:18:47;;;;;;;3.08;2.72;;;;;;;;;;4939140;28;20059;-77
2023/01/07 15:21:27;;;;;;;4.20;3.30;;;;;;;;;;4951114;28;20060;-78
2023/01/07 15:24:25;;;;;;;3.30;2.70;;;;;;;;;;4957793;28;20102;-77
2023/01/07 15:27:37;;;;;;;4.13;3.22;;;;;;;;;;4983803;28;20077;-76
2023/01/07 15:30:36;;;;;;;4.60;3.58;;;;;;;;;;4878947;29;20168;-75
2023/01/07 15:33:30;;;;;;;4.28;3.60;;;;;;;;;;4874163;29;20053;-75
2023/01/07 15:35:59;;;;;;;4.03;3.60;;;;;;;;;;4967957;28;20058;-75
2023/01/07 15:38:54;;;;;;;4.53;3.67;;;;;;;;;;4933115;29;20059;-79
2023/01/07 15:41:31;;;;;;;3.90;3.45;;;;;;;;;;4963176;28;20491;-76
2023/01/07 15:44:05;;;;;;;5.95;4.05;;;;;;;;;;4949962;28;20077;-76
2023/01/07 15:46:34;;;;;;;7.38;3.78;;;;;;;;;;4953304;28;20061;-76
2023/01/07 15:49:07;;;;;;;4.90;3.53;;;;;;;;;;4951435;28;20076;-76
2023/01/07 15:51:39;;;;;;;5.38;4.32;;;;;;;;;;4967287;28;20633;-76